Time;durP1;ratioP1;P1;durP2;ratioP2;P2;SDS_P1;SDS_P2;PMS_P1;PMS_P2;Temp;Humidity;BMP_temperature;BMP_pressure;BME280_temperature;BME280_humidity;BME280_pressure;Samples;Min_cycle;Max_cycle;Signal;HPM_P1;HPM_P2
2022/04/28 00:01:15;;;;;;;18.08;7.85;;;;;;;7.62;65.04;102804.06;7393340;19;20015;-54
2022/04/28 00:03:44;;;;;;;15.98;8.57;;;;;;;7.55;65.46;102804.94;7391746;19;20417;-59
2022/04/28 00:06:16;;;;;;;16.95;8.18;;;;;;;7.57;65.64;102813.66;7394209;19;20014;-58
2022/04/28 00:08:45;;;;;;;15.13;7.97;;;;;;;7.49;65.80;102818.84;7392945;19;20014;-59
2022/04/28 00:11:14;;;;;;;15.90;8.20;;;;;;;7.45;66.23;102818.00;7393578;19;20011;-59
2022/04/28 00:13:43;;;;;;;17.20;8.65;;;;;;;7.49;66.05;102818.00;7394824;19;20023;-55
2022/04/28 00:16:12;;;;;;;15.02;7.95;;;;;;;7.35;66.22;102812.75;7394509;19;20025;-58
2022/04/28 00:18:41;;;;;;;20.08;8.60;;;;;;;7.48;66.54;102814.53;7392845;19;20137;-58
2022/04/28 00:21:10;;;;;;;16.25;8.57;;;;;;;7.48;66.27;102817.13;7393961;19;20122;-59
2022/04/28 00:23:41;;;;;;;18.77;8.85;;;;;;;7.50;66.17;102807.56;7393310;19;20364;-56
2022/04/28 00:26:10;;;;;;;17.02;9.02;;;;;;;7.52;66.22;102818.00;7394300;19;20390;-58
2022/04/28 00:28:39;;;;;;;167.02;18.42;;;;;;;7.62;66.38;102814.50;7392486;19;20617;-57
2022/04/28 00:31:09;;;;;;;17.98;8.68;;;;;;;7.62;65.98;102817.13;7392375;19;20018;-57
2022/04/28 00:33:40;;;;;;;19.38;8.63;;;;;;;7.49;66.70;102818.84;7392662;19;20029;-57
2022/04/28 00:36:09;;;;;;;17.13;8.95;;;;;;;7.50;66.49;102820.59;7393154;19;20023;-57
2022/04/28 00:38:42;;;;;;;25.33;9.07;;;;;;;7.51;66.28;102811.91;7395332;19;20094;-54
2022/04/28 00:41:11;;;;;;;17.23;8.75;;;;;;;7.35;66.56;102812.75;7393214;19;20011;-54
2022/04/28 00:43:50;;;;;;;16.95;8.68;;;;;;;7.17;67.67;102817.06;7392382;19;20756;-56
2022/04/28 00:46:19;;;;;;;17.73;8.82;;;;;;;7.20;67.27;102818.81;7393340;19;20014;-56
2022/04/28 00:51:44;;;;;;;20.52;9.23;;;;;;;7.04;67.74;102805.75;7389884;19;20039;-58
2022/04/28 00:54:16;;;;;;;17.05;8.90;;;;;;;7.04;68.23;102813.56;7388331;19;20416;-54
2022/04/28 00:56:46;;;;;;;18.80;9.43;;;;;;;7.06;68.10;102814.47;7393053;19;20018;-52
2022/04/28 00:59:15;;;;;;;19.60;9.48;;;;;;;7.01;68.22;102816.16;7388855;19;20015;-57
2022/04/28 01:01:44;;;;;;;22.23;9.75;;;;;;;6.89;68.73;102829.16;7392440;19;20017;-56
2022/04/28 01:04:13;;;;;;;16.83;8.90;;;;;;;6.99;68.49;102824.84;7388910;19;20098;-54
2022/04/28 01:06:43;;;;;;;20.65;10.05;;;;;;;6.88;69.04;102825.69;7393590;19;20011;-54
2022/04/28 01:09:16;;;;;;;20.80;9.90;;;;;;;7.01;68.88;102828.34;7388665;19;20105;-57
2022/04/28 01:11:45;;;;;;;20.58;9.35;;;;;;;6.89;69.31;102830.03;7391947;19;20503;-55
2022/04/28 01:14:23;;;;;;;20.20;9.82;;;;;;;6.93;69.54;102826.59;7388419;19;20482;-56
2022/04/28 01:17:00;;;;;;;21.30;9.55;;;;;;;6.89;69.57;102824.81;7391092;19;20010;-52
2022/04/28 01:19:30;;;;;;;19.75;9.98;;;;;;;6.92;69.06;102827.44;7390102;19;20094;-54
2022/04/28 01:22:02;;;;;;;16.15;9.70;;;;;;;6.91;69.11;102827.44;7392815;19;20010;-56
2022/04/28 01:24:31;;;;;;;20.08;10.18;;;;;;;6.87;69.41;102825.69;7390741;19;20479;-53
2022/04/28 01:27:03;;;;;;;24.98;10.13;;;;;;;6.93;69.32;102823.97;7394208;19;20018;-55
2022/04/28 01:29:33;;;;;;;24.25;10.05;;;;;;;6.84;70.05;102823.94;7390561;19;20022;-58
2022/04/28 01:32:03;;;;;;;19.92;9.88;;;;;;;6.77;70.20;102826.53;7394360;19;20011;-54
2022/04/28 01:34:37;;;;;;;18.33;10.38;;;;;;;6.82;70.13;102820.47;7391946;19;20018;-57
2022/04/28 01:37:09;;;;;;;23.17;10.43;;;;;;;6.88;69.85;102827.44;7388327;19;20006;-53
2022/04/28 01:39:38;;;;;;;17.95;10.05;;;;;;;6.82;70.35;102824.78;7389004;19;20022;-51
2022/04/28 01:42:08;;;;;;;19.60;10.55;;;;;;;6.72;69.97;102824.75;7389977;19;20011;-53
2022/04/28 01:44:38;;;;;;;21.38;10.38;;;;;;;6.72;70.67;102829.06;7386957;19;20031;-56
2022/04/28 01:47:07;;;;;;;24.20;10.13;;;;;;;6.74;70.41;102825.63;7390278;19;20014;-55
2022/04/28 01:49:58;;;;;;;21.25;11.18;;;;;;;6.63;71.06;102829.91;7385808;19;20011;-51
2022/04/28 01:56:02;;;;;;;22.80;11.02;;;;;;;6.58;70.97;102821.22;7390651;19;20059;-57
2022/04/28 01:58:51;;;;;;;17.90;10.15;;;;;;;6.44;71.61;102822.88;7389505;19;20432;-55
2022/04/28 02:01:41;;;;;;;19.40;10.18;;;;;;;6.49;71.64;102826.38;7388036;19;20783;-53
2022/04/28 02:04:10;;;;;;;20.77;11.27;;;;;;;6.43;71.79;102828.94;7386105;19;20049;-56
2022/04/28 02:06:41;;;;;;;21.77;11.13;;;;;;;6.28;72.38;102825.41;7387989;19;20006;-56
2022/04/28 02:09:14;;;;;;;19.75;10.05;;;;;;;6.41;72.45;102822.00;7386577;19;20035;-57
2022/04/28 02:11:43;;;;;;;21.80;11.35;;;;;;;6.47;72.22;102826.38;7388723;19;20011;-56
2022/04/28 02:14:33;;;;;;;24.45;11.30;;;;;;;6.51;71.96;102829.88;7389420;19;20042;-54
2022/04/28 02:17:39;;;;;;;21.52;11.52;;;;;;;6.30;72.84;102825.41;7392386;19;20642;-55
2022/04/28 02:20:11;;;;;;;20.02;11.40;;;;;;;6.30;72.81;102830.59;7393977;19;20021;-58
2022/04/28 02:22:42;;;;;;;22.55;11.68;;;;;;;6.20;73.33;102829.69;7398160;19;20321;-54
2022/04/28 02:25:15;;;;;;;21.27;11.32;;;;;;;6.23;72.62;102837.50;7402020;19;20038;-57
2022/04/28 02:27:44;;;;;;;18.77;11.23;;;;;;;6.28;73.17;102843.63;7398598;19;20019;-56
2022/04/28 02:30:14;;;;;;;25.88;11.40;;;;;;;6.40;73.20;102841.09;7390586;19;20010;-56
2022/04/28 02:35:29;;;;;;;21.98;11.25;;;;;;;6.26;73.07;102841.88;7388934;19;20103;-58
2022/04/28 02:37:58;;;;;;;19.85;11.35;;;;;;;6.21;73.55;102844.44;7389996;19;20484;-55
2022/04/28 02:40:30;;;;;;;22.10;11.68;;;;;;;6.28;73.33;102847.97;7388004;19;20056;-57
2022/04/28 02:43:03;;;;;;;19.48;10.40;;;;;;;6.22;73.63;102839.25;7390118;19;20018;-58
2022/04/28 02:45:33;;;;;;;19.83;10.00;;;;;;;6.24;73.21;102845.31;7389095;19;20348;-58
2022/04/28 02:48:02;;;;;;;21.50;10.40;;;;;;;6.17;73.39;102840.94;7388489;19;20018;-59
2022/04/28 02:50:31;;;;;;;26.98;15.27;;;;;;;6.30;72.70;102841.03;7386149;19;20108;-57
2022/04/28 02:53:01;;;;;;;21.70;10.82;;;;;;;6.16;73.11;102841.81;7389607;19;20349;-56
2022/04/28 02:55:39;;;;;;;18.75;10.98;;;;;;;6.05;73.31;102838.25;7387248;19;20074;-56
2022/04/28 02:58:08;;;;;;;17.17;9.68;;;;;;;6.21;72.80;102845.31;7389453;19;20053;-57
2022/04/28 03:00:38;;;;;;;24.85;10.55;;;;;;;6.15;73.31;102845.28;7386907;19;20014;-58
2022/04/28 03:03:07;;;;;;;20.67;10.40;;;;;;;6.18;73.19;102845.28;7386842;19;20015;-56
2022/04/28 03:10:46;;;;;;;21.98;11.32;;;;;;;6.16;73.40;102835.72;7386771;19;20034;-57
2022/04/28 03:11:12;;;;;;;20.55;10.40;;;;;;;6.00;73.28;102846.03;7386786;19;20024;-58
2022/04/28 03:13:41;;;;;;;21.45;10.38;;;;;;;6.03;73.93;102837.38;7385711;19;20019;-57
2022/04/28 03:16:10;;;;;;;19.00;10.40;;;;;;;6.18;73.51;102844.44;7387102;19;20022;-56
2022/04/28 03:19:00;;;;;;;25.00;10.60;;;;;;;6.21;73.39;102842.69;7386387;19;20010;-57
2022/04/28 03:21:30;;;;;;;16.27;9.55;;;;;;;6.17;73.50;102842.69;7387154;19;20032;-57
2022/04/28 03:23:59;;;;;;;19.52;10.45;;;;;;;6.16;73.30;102843.53;7383303;19;20014;-58
2022/04/28 03:26:31;;;;;;;23.08;10.10;;;;;;;6.18;73.43;102837.47;7388301;19;20018;-57
2022/04/28 03:29:00;;;;;;;20.30;10.17;;;;;;;6.04;73.24;102846.94;7385207;19;20022;-59
2022/04/28 03:31:29;;;;;;;19.02;10.07;;;;;;;5.86;73.94;102842.41;7386468;19;20235;-53
2022/04/28 03:34:24;;;;;;;;;;;;;;;5.99;74.08;102846.91;7384771;19;20485;-56
2022/04/28 03:36:54;;;;;;;20.45;9.23;;;;;;;6.04;74.06;102844.31;7387034;19;19923;-52
2022/04/28 03:39:26;;;;;;;21.50;9.60;;;;;;;6.15;72.92;102850.47;7385227;19;20372;-53
2022/04/28 03:41:57;;;;;;;18.77;10.07;;;;;;;6.17;73.07;102843.53;7386128;19;20813;-58
2022/04/28 03:44:26;;;;;;;18.80;10.20;;;;;;;6.04;72.85;102846.94;7384481;19;20014;-53
2022/04/28 03:46:56;;;;;;;19.50;9.40;;;;;;;6.08;73.29;102843.50;7386890;19;20071;-58
2022/04/28 03:49:25;;;;;;;16.25;9.75;;;;;;;6.15;72.49;102842.66;7384373;19;20019;-58
2022/04/28 03:51:55;;;;;;;19.02;9.73;;;;;;;6.08;72.59;102840.88;7385949;19;20053;-53
2022/04/28 03:54:24;;;;;;;18.48;9.65;;;;;;;6.15;72.39;102845.28;7383253;19;20459;-57
2022/04/28 03:56:53;;;;;;;19.23;9.82;;;;;;;6.12;72.47;102839.16;7386438;19;20023;-56
2022/04/28 03:59:25;;;;;;;14.23;8.80;;;;;;;6.21;71.78;102842.69;7385110;19;20027;-59
2022/04/28 04:02:02;;;;;;;22.13;10.52;;;;;;;6.20;72.13;102842.69;7388007;19;20526;-55
2022/04/28 04:04:31;;;;;;;17.02;9.25;;;;;;;6.17;71.89;102856.56;7384659;19;20021;-59
2022/04/28 04:07:04;;;;;;;16.92;9.25;;;;;;;6.06;71.97;102847.78;7385727;19;20053;-55
2022/04/28 04:09:38;;;;;;;20.13;9.13;;;;;;;5.96;71.99;102841.63;7385937;19;20078;-56
2022/04/28 04:12:14;;;;;;;21.75;9.18;;;;;;;6.10;72.13;102851.31;7385699;19;20010;-53
2022/04/28 04:15:18;;;;;;;15.52;9.48;;;;;;;6.12;71.83;102849.56;7384816;19;20490;-55
2022/04/28 04:18:08;;;;;;;17.73;9.60;;;;;;;6.16;71.90;102841.81;7386343;19;20473;-56
2022/04/28 04:20:57;;;;;;;17.35;9.60;;;;;;;6.10;72.15;102849.56;7385339;19;20373;-59
2022/04/28 04:23:26;;;;;;;19.70;9.82;;;;;;;6.07;72.32;102846.94;7384827;19;20015;-56
2022/04/28 04:25:56;;;;;;;20.75;9.35;;;;;;;6.02;73.05;102843.44;7386841;19;20027;-58
2022/04/28 04:28:26;;;;;;;21.90;10.38;;;;;;;5.88;73.50;102843.31;7385407;19;20018;-53
2022/04/28 04:34:16;;;;;;;17.73;9.45;;;;;;;5.81;74.10;102857.13;7385267;19;20014;-57
2022/04/28 04:36:46;;;;;;;16.92;9.65;;;;;;;5.87;74.38;102855.44;7392490;19;20022;-56
2022/04/28 04:39:15;;;;;;;20.67;9.57;;;;;;;6.02;73.92;102867.72;7392177;19;20519;-57
2022/04/28 04:41:45;;;;;;;17.60;10.05;;;;;;;6.05;73.98;102866.91;7393605;19;20045;-58
2022/04/28 04:44:15;;;;;;;18.33;9.57;;;;;;;6.13;73.73;102865.22;7391602;19;20114;-53
2022/04/28 04:46:51;;;;;;;21.92;9.45;;;;;;;6.08;73.72;102869.50;7393520;19;20010;-58
2022/04/28 04:49:35;;;;;;;19.08;9.93;;;;;;;6.09;73.61;102868.66;7390532;19;20491;-52
2022/04/28 04:52:17;;;;;;;18.83;10.23;;;;;;;5.93;75.03;102874.56;7392905;19;20038;-55
2022/04/28 04:55:02;;;;;;;18.38;8.93;;;;;;;5.96;74.95;102882.38;7392362;19;20078;-58
2022/04/28 04:57:31;;;;;;;17.83;9.55;;;;;;;5.92;74.81;102886.72;7391157;19;20026;-52
2022/04/28 05:00:02;;;;;;;21.80;10.05;;;;;;;5.95;74.78;102886.72;7390852;19;20090;-54
2022/04/28 05:02:36;;;;;;;17.38;9.07;;;;;;;6.01;74.27;102884.19;7391968;19;20493;-57
2022/04/28 05:05:26;;;;;;;21.60;9.85;;;;;;;6.05;74.06;102883.38;7391380;19;20508;-57
2022/04/28 05:08:07;;;;;;;23.17;10.02;;;;;;;6.10;73.57;102883.41;7393285;19;20021;-55
2022/04/28 05:10:37;;;;;;;93.15;13.52;;;;;;;6.21;74.17;102884.34;7388406;19;20815;-54
2022/04/28 05:13:08;;;;;;;15.27;8.55;;;;;;;6.01;74.21;102878.13;7391199;19;20018;-56
2022/04/28 05:15:47;;;;;;;19.90;8.63;;;;;;;5.97;74.33;102899.75;7391032;19;20026;-54
2022/04/28 05:18:25;;;;;;;19.77;8.80;;;;;;;6.22;73.69;102903.47;7392666;19;20373;-56
2022/04/28 05:21:06;;;;;;;19.70;8.95;;;;;;;6.21;73.43;102901.72;7390411;19;20022;-58
2022/04/28 05:24:01;;;;;;;17.52;9.23;;;;;;;6.33;72.96;102901.81;7390250;19;20083;-56
2022/04/28 05:26:47;;;;;;;18.90;8.75;;;;;;;6.35;72.99;102907.91;7392411;19;20022;-54
2022/04/28 05:29:34;;;;;;;19.40;8.85;;;;;;;6.49;72.49;102907.09;7390710;19;20034;-56
2022/04/28 05:32:36;;;;;;;23.75;9.07;;;;;;;6.53;71.90;102921.91;7390024;19;20035;-58
2022/04/28 05:35:31;;;;;;;17.40;8.38;;;;;;;6.56;71.75;102922.81;7389916;19;20612;-56
2022/04/28 05:38:00;;;;;;;15.52;8.68;;;;;;;6.68;71.24;102923.75;7389868;19;20014;-58
2022/04/28 05:40:29;;;;;;;17.20;8.02;;;;;;;6.82;70.73;102919.47;7390835;19;20038;-56
2022/04/28 05:45:46;;;;;;;21.90;8.55;;;;;;;6.85;70.60;102924.69;7390066;19;20018;-55
2022/04/28 05:48:20;;;;;;;18.83;8.48;;;;;;;6.83;69.94;102930.75;7389496;19;20049;-56
2022/04/28 05:51:00;;;;;;;18.20;8.00;;;;;;;6.93;69.68;102935.16;7387335;19;20011;-53
2022/04/28 05:53:29;;;;;;;16.02;7.55;;;;;;;7.02;68.83;102931.72;7388357;19;20022;-56
2022/04/28 05:56:06;;;;;;;19.88;7.60;;;;;;;7.04;68.54;102930.88;7389649;19;20038;-55
2022/04/28 05:58:45;;;;;;;20.65;8.50;;;;;;;7.20;68.66;102928.34;7387882;19;20035;-58
2022/04/28 06:01:33;;;;;;;14.70;7.40;;;;;;;7.22;68.34;102926.59;7391685;19;20014;-59
2022/04/28 06:04:08;;;;;;;14.38;7.68;;;;;;;7.39;67.66;102932.75;7387452;19;20022;-56
2022/04/28 06:06:40;;;;;;;14.93;7.50;;;;;;;7.47;67.46;102934.53;7391283;19;20115;-56
2022/04/28 06:09:20;;;;;;;13.07;7.20;;;;;;;7.44;66.64;102935.38;7387649;19;20088;-56
2022/04/28 06:11:50;;;;;;;16.70;7.03;;;;;;;7.43;66.79;102941.44;7389538;19;20029;-57
2022/04/28 06:14:19;;;;;;;28.42;7.55;;;;;;;7.46;66.32;102944.06;7388488;19;20048;-56
2022/04/28 06:16:48;;;;;;;15.90;6.82;;;;;;;7.50;66.17;102951.03;7392159;19;20490;-54
2022/04/28 06:19:28;;;;;;;15.85;7.30;;;;;;;7.57;66.20;102964.97;7388646;19;20014;-54
2022/04/28 06:22:12;;;;;;;18.08;7.65;;;;;;;7.63;65.35;102955.41;7391878;19;20035;-57
2022/04/28 06:24:45;;;;;;;12.00;7.00;;;;;;;7.70;65.02;102965.88;7387185;19;20018;-57
2022/04/28 06:27:16;;;;;;;15.60;7.22;;;;;;;7.74;64.60;102968.50;7391054;19;20377;-56
2022/04/28 06:29:50;;;;;;;16.05;7.35;;;;;;;7.83;64.64;102970.25;7387119;19;20129;-57
2022/04/28 06:32:21;;;;;;;14.52;6.82;;;;;;;7.89;64.42;102964.16;7388991;19;20014;-56
2022/04/28 06:34:50;;;;;;;18.05;6.88;;;;;;;7.96;64.15;102968.53;7387878;19;20062;-52
2022/04/28 06:37:24;;;;;;;13.00;6.32;;;;;;;7.97;63.60;102972.88;7389389;19;20006;-51
2022/04/28 06:39:58;;;;;;;14.73;6.05;;;;;;;8.07;63.73;102976.38;7393832;19;20021;-53
2022/04/28 06:42:27;;;;;;;13.25;5.85;;;;;;;8.00;62.93;102977.25;7388010;19;20011;-57
2022/04/28 06:45:15;;;;;;;16.58;6.35;;;;;;;8.19;62.50;102976.38;7388814;19;20033;-54
2022/04/28 06:48:03;;;;;;;13.45;5.45;;;;;;;8.28;62.25;102979.00;7390194;19;20050;-59
2022/04/28 06:50:44;;;;;;;10.30;5.40;;;;;;;8.41;61.58;102984.22;7389277;19;20018;-56
2022/04/28 06:53:48;;;;;;;14.75;5.47;;;;;;;8.48;60.99;102980.75;7387605;19;20458;-56
2022/04/28 06:56:22;;;;;;;14.68;5.63;;;;;;;8.52;60.96;102984.25;7388651;19;20396;-57
2022/04/28 06:59:17;;;;;;;13.13;5.68;;;;;;;8.61;60.77;102986.84;7387430;19;20018;-58
2022/04/28 07:01:48;;;;;;;15.73;5.20;;;;;;;8.59;60.46;102992.09;7388167;19;20014;-57
2022/04/28 07:04:18;;;;;;;18.60;5.97;;;;;;;8.66;60.29;102993.81;7386423;19;20019;-54
2022/04/28 07:06:47;;;;;;;14.45;5.63;;;;;;;8.70;59.97;102993.81;7387056;19;20018;-56
2022/04/28 07:09:18;;;;;;;12.80;5.05;;;;;;;8.73;60.33;102993.81;7386688;19;20021;-58
2022/04/28 07:11:48;;;;;;;15.93;6.18;;;;;;;8.76;60.21;102994.69;7387547;19;20010;-57
2022/04/28 07:14:42;;;;;;;11.75;5.25;;;;;;;8.94;60.01;102996.41;7384838;19;20018;-55
2022/04/28 07:17:37;;;;;;;12.00;5.10;;;;;;;9.04;59.28;103004.22;7388460;19;20025;-58
2022/04/28 07:20:08;;;;;;;11.55;5.28;;;;;;;8.99;59.44;102999.00;7386115;19;20535;-53
2022/04/28 07:22:37;;;;;;;10.57;5.13;;;;;;;9.21;59.32;103002.41;7389406;19;20490;-54
2022/04/28 07:25:11;;;;;;;16.58;6.32;;;;;;;9.10;58.50;103005.06;7392454;19;20345;-58
2022/04/28 07:27:40;;;;;;;11.60;5.60;;;;;;;9.14;58.60;103003.31;7387886;19;20014;-59
2022/04/28 07:30:20;;;;;;;14.57;6.22;;;;;;;9.20;58.16;103000.69;7389824;19;20010;-57
2022/04/28 07:32:50;;;;;;;15.63;5.93;;;;;;;9.31;58.71;103003.25;7387537;19;20036;-55
2022/04/28 07:35:19;;;;;;;13.50;6.28;;;;;;;9.43;57.83;103003.22;7389625;19;20348;-58
2022/04/28 07:38:08;;;;;;;15.10;5.00;;;;;;;9.59;57.52;103011.84;7388365;19;20010;-59
2022/04/28 07:40:39;;;;;;;11.32;4.75;;;;;;;9.74;57.31;103015.28;7387455;19;20014;-58
2022/04/28 07:43:15;;;;;;;16.92;5.85;;;;;;;9.79;56.41;103010.91;7385113;19;20017;-57
2022/04/28 07:45:44;;;;;;;10.45;5.25;;;;;;;9.77;56.77;103012.63;7384836;19;20086;-59
2022/04/28 07:48:19;;;;;;;11.15;5.35;;;;;;;9.86;56.60;103007.34;7386157;19;20022;-58
2022/04/28 07:50:50;;;;;;;9.38;4.90;;;;;;;10.04;56.26;103008.97;7389125;19;20026;-58
2022/04/28 07:53:31;;;;;;;9.70;5.13;;;;;;;10.10;55.57;103005.44;7386954;19;20074;-59
2022/04/28 07:56:20;;;;;;;15.55;5.18;;;;;;;10.24;55.62;103010.59;7389611;19;20463;-58
2022/04/28 07:58:52;;;;;;;10.23;5.28;;;;;;;10.27;55.04;103019.28;7385852;19;20015;-60
2022/04/28 08:01:31;;;;;;;12.32;5.88;;;;;;;10.42;54.62;103015.72;7386080;19;20018;-60
2022/04/28 08:04:00;;;;;;;14.63;6.60;;;;;;;10.42;54.86;103026.22;7384889;19;20086;-58
2022/04/28 08:06:29;;;;;;;18.23;5.95;;;;;;;10.20;55.40;103030.69;7384590;19;20026;-57
2022/04/28 08:08:58;;;;;;;11.40;5.68;;;;;;;10.37;55.71;103031.50;7387251;19;20078;-58
2022/04/28 08:11:30;;;;;;;15.45;6.10;;;;;;;10.33;55.43;103032.38;7397642;19;20003;-54
2022/04/28 08:13:59;;;;;;;9.20;5.95;;;;;;;10.49;55.08;103033.13;7391790;19;20467;-55
2022/04/28 08:16:30;;;;;;;14.32;6.07;;;;;;;10.56;54.26;103045.31;7392973;19;20058;-57
2022/04/28 08:19:01;;;;;;;13.05;6.38;;;;;;;10.63;54.80;103048.75;7393406;19;20015;-54
2022/04/28 08:21:39;;;;;;;13.65;6.38;;;;;;;10.44;54.22;103040.16;7392985;19;20019;-53
2022/04/28 08:24:08;;;;;;;12.25;6.07;;;;;;;10.48;55.49;103038.41;7391164;19;20015;-57
2022/04/28 08:26:41;;;;;;;16.23;7.00;;;;;;;10.64;54.21;103040.00;7392823;19;20018;-56
2022/04/28 08:29:10;;;;;;;10.32;6.35;;;;;;;10.51;54.61;103043.63;7392317;19;20014;-58
2022/04/28 08:31:46;;;;;;;17.15;6.72;;;;;;;10.78;54.63;103049.50;7393577;19;20038;-57
2022/04/28 08:34:21;;;;;;;16.15;7.20;;;;;;;10.76;54.85;103052.16;7390641;19;20019;-57
2022/04/28 08:36:51;;;;;;;15.50;6.72;;;;;;;10.95;54.00;103046.72;7392497;19;20014;-56
2022/04/28 08:39:23;;;;;;;15.88;6.65;;;;;;;10.68;54.93;103043.47;7391628;19;20022;-58
2022/04/28 08:41:55;;;;;;;13.63;7.05;;;;;;;11.08;54.37;103036.06;7392659;19;20114;-55
2022/04/28 08:44:26;;;;;;;15.23;6.03;;;;;;;11.33;53.77;103041.03;7391986;19;20020;-54
2022/04/28 08:47:11;;;;;;;15.93;6.65;;;;;;;11.34;53.10;103044.56;7396638;19;20010;-59
2022/04/28 08:49:43;;;;;;;22.88;7.32;;;;;;;11.33;53.09;103045.44;7390271;19;20026;-59
2022/04/28 08:52:19;;;;;;;377.15;30.67;;;;;;;11.47;52.77;103050.53;7392168;19;20369;-57
2022/04/28 08:54:51;;;;;;;15.63;6.22;;;;;;;11.57;52.20;103039.88;7389726;19;20072;-58
2022/04/28 08:57:24;;;;;;;13.10;6.38;;;;;;;11.74;51.70;103046.69;7393596;19;20013;-58
2022/04/28 08:59:55;;;;;;;;;;;;;;;11.41;51.67;103046.22;7392787;19;20025;-58
2022/04/28 09:02:27;;;;;;;17.83;7.13;;;;;;;11.54;52.52;103054.81;7393112;19;19922;-59
2022/04/28 09:05:21;;;;;;;11.00;6.15;;;;;;;11.89;51.63;103053.47;7392423;19;20022;-58
2022/04/28 09:08:09;;;;;;;13.98;6.88;;;;;;;12.02;51.49;103049.84;7394704;19;20015;-58
2022/04/28 09:11:00;;;;;;;15.38;7.10;;;;;;;11.89;50.91;103045.59;7393417;19;20476;-58
2022/04/28 09:14:13;;;;;;;13.52;5.97;;;;;;;11.75;51.04;103046.66;7390876;19;20014;-55
2022/04/28 09:16:47;;;;;;;15.10;7.47;;;;;;;11.59;50.59;103037.22;7391535;19;20018;-56
2022/04/28 09:19:19;;;;;;;12.23;6.55;;;;;;;11.73;51.60;103040.56;7390202;19;20021;-58
2022/04/28 09:21:50;;;;;;;15.68;6.40;;;;;;;12.24;51.06;103031.09;7392179;19;20018;-58
2022/04/28 09:24:19;;;;;;;13.13;6.05;;;;;;;12.46;49.41;103026.34;7390191;19;20357;-58
2022/04/28 09:26:50;;;;;;;15.48;6.43;;;;;;;12.43;49.98;103029.91;7392045;19;20015;-58
2022/04/28 09:29:23;;;;;;;10.52;6.78;;;;;;;12.36;49.09;103030.03;7392439;19;20025;-54
2022/04/28 09:31:54;;;;;;;;;;;;;;;12.25;49.13;103038.09;7389804;19;20019;-54
2022/04/28 09:34:53;;;;;;;16.38;6.35;;;;;;;12.33;50.25;103027.47;7387006;19;19923;-56
2022/04/28 09:37:40;;;;;;;11.63;6.05;;;;;;;12.41;49.38;103028.22;7391430;19;20407;-54
2022/04/28 09:42:56;;;;;;;20.75;6.93;;;;;;;12.87;48.39;103030.03;7389352;19;20364;-60
2022/04/28 09:45:34;;;;;;;12.27;6.13;;;;;;;12.88;48.18;103028.25;7390624;19;20010;-57
2022/04/28 09:48:06;;;;;;;;;;;;;;;12.88;48.63;103023.00;7390431;19;20018;-57
2022/04/28 09:50:42;;;;;;;13.98;6.55;;;;;;;12.50;48.83;103021.94;7390021;19;19921;-58
2022/04/28 09:53:27;;;;;;;16.08;7.40;;;;;;;11.85;50.41;103015.00;7388349;19;20014;-54
2022/04/28 09:56:11;;;;;;;11.73;6.55;;;;;;;12.46;49.81;103021.09;7390314;19;20321;-52
2022/04/28 09:58:57;;;;;;;14.23;6.13;;;;;;;12.87;49.18;103013.38;7390170;19;20345;-54
2022/04/28 10:01:30;;;;;;;10.80;6.22;;;;;;;13.33;47.79;103021.22;7392120;19;20490;-55
2022/04/28 10:04:01;;;;;;;13.50;7.00;;;;;;;13.24;47.23;103018.81;7387214;19;20099;-56
2022/04/28 10:06:50;;;;;;;12.43;5.57;;;;;;;13.49;47.98;103007.78;7390354;19;20018;-59
2022/04/28 10:09:26;;;;;;;13.52;6.13;;;;;;;13.84;46.35;103008.78;7390555;19;20403;-59
2022/04/28 10:12:00;;;;;;;9.77;6.20;;;;;;;13.81;46.46;103008.84;7388600;19;20066;-60
2022/04/28 10:14:36;;;;;;;14.15;6.63;;;;;;;13.89;45.53;103006.91;7387093;19;20052;-55
2022/04/28 10:17:13;;;;;;;12.00;6.90;;;;;;;13.21;46.31;103010.97;7389118;19;20025;-56
2022/04/28 10:19:47;;;;;;;13.80;7.18;;;;;;;13.24;46.92;103000.38;7391814;19;20022;-57
2022/04/28 10:22:38;;;;;;;10.55;6.88;;;;;;;13.44;45.40;102997.34;7391543;19;20082;-57
2022/04/28 10:34:18;;;;;;;13.45;6.55;;;;;;;14.29;44.88;102999.81;7387144;19;20023;-56
2022/04/28 10:36:55;;;;;;;12.10;6.50;;;;;;;13.95;44.92;102997.97;7392690;19;20118;-58
2022/04/28 10:39:41;;;;;;;13.05;6.88;;;;;;;14.38;44.67;102996.94;7389841;19;20018;-51
2022/04/28 10:42:23;;;;;;;10.85;6.60;;;;;;;14.27;44.37;102989.31;7390354;19;20011;-58
2022/04/28 10:44:54;;;;;;;9.70;5.97;;;;;;;14.50;44.51;102993.13;7388901;19;20014;-60
2022/04/28 10:47:35;;;;;;;10.90;6.57;;;;;;;14.56;44.03;102981.53;7390201;19;20151;-54
2022/04/28 10:50:23;;;;;;;22.85;6.93;;;;;;;14.74;43.97;102981.06;7389575;19;20010;-57
2022/04/28 10:53:06;;;;;;;19.30;7.05;;;;;;;14.55;43.59;102985.94;7386305;19;20013;-53
2022/04/28 10:55:36;;;;;;;12.55;6.65;;;;;;;14.53;43.99;102991.25;7390906;19;20026;-54
2022/04/28 10:58:20;;;;;;;23.13;7.45;;;;;;;14.67;44.41;102985.66;7389631;19;20396;-57
2022/04/28 11:00:54;;;;;;;12.50;6.20;;;;;;;15.15;42.96;102994.88;7389381;19;20327;-53
2022/04/28 11:03:47;;;;;;;10.00;6.60;;;;;;;15.26;42.25;102996.34;7387602;19;20022;-59
2022/04/28 11:06:22;;;;;;;14.40;6.43;;;;;;;14.82;43.12;102988.78;7388575;19;20079;-56
2022/04/28 11:08:53;;;;;;;11.60;6.53;;;;;;;14.84;43.65;102989.59;7388095;19;20014;-56
2022/04/28 11:11:23;;;;;;;12.88;6.55;;;;;;;15.10;42.40;102993.28;7386821;19;20015;-58
2022/04/28 11:13:57;;;;;;;14.98;6.55;;;;;;;15.17;42.67;102990.44;7386701;19;20026;-60
2022/04/28 11:16:27;;;;;;;13.30;6.25;;;;;;;15.28;42.37;102982.19;7388410;19;20019;-55
2022/04/28 11:18:56;;;;;;;16.77;6.82;;;;;;;15.58;42.20;102985.69;7388774;19;20015;-55
2022/04/28 11:21:28;;;;;;;15.00;6.82;;;;;;;15.74;41.96;102979.94;7389656;19;20049;-59
2022/04/28 11:23:58;;;;;;;12.25;6.68;;;;;;;16.09;41.17;102975.34;7391873;19;20434;-54
2022/04/28 11:26:54;;;;;;;13.90;6.75;;;;;;;15.69;41.46;102973.94;7388247;19;20021;-57
2022/04/28 11:29:43;;;;;;;18.27;6.40;;;;;;;15.98;41.82;102964.25;7390074;19;20122;-57
2022/04/28 11:32:13;;;;;;;12.73;7.05;;;;;;;15.88;42.28;102963.66;7388181;19;20029;-56
2022/04/28 11:34:43;;;;;;;14.05;6.43;;;;;;;16.16;41.68;102966.28;7385858;19;20420;-57
2022/04/28 11:37:19;;;;;;;10.23;6.50;;;;;;;16.61;40.78;102967.38;7387498;19;20364;-58
2022/04/28 11:39:49;;;;;;;11.88;5.72;;;;;;;16.76;39.51;102961.56;7389725;19;20029;-59
2022/04/28 11:42:20;;;;;;;12.60;6.65;;;;;;;16.67;39.35;102961.00;7390804;19;20372;-60
2022/04/28 11:44:51;;;;;;;8.55;6.47;;;;;;;16.14;40.05;102959.31;7395766;19;20024;-59
2022/04/28 11:47:20;;;;;;;11.80;5.80;;;;;;;16.54;39.94;102956.13;7402195;19;20090;-58
2022/04/28 11:49:50;;;;;;;12.57;6.18;;;;;;;16.89;40.29;102954.06;7400527;19;20038;-59
2022/04/28 11:52:23;;;;;;;12.35;6.18;;;;;;;17.05;38.55;102966.69;7399833;19;20018;-59
2022/04/28 11:54:53;;;;;;;12.93;7.45;;;;;;;16.98;38.69;102963.44;7398984;19;20025;-59
2022/04/28 11:57:22;;;;;;;12.48;6.85;;;;;;;16.51;39.42;102961.53;7401063;19;20022;-60
2022/04/28 11:59:51;;;;;;;9.68;5.78;;;;;;;16.47;40.79;102959.06;7404970;19;20017;-57
2022/04/28 12:02:32;;;;;;;22.35;7.68;;;;;;;17.16;39.70;102959.22;7401812;19;20023;-57
2022/04/28 12:05:03;;;;;;;14.75;6.90;;;;;;;17.47;38.95;102958.06;7398243;19;20082;-53
2022/04/28 12:07:37;;;;;;;13.88;6.13;;;;;;;17.42;39.00;102963.53;7402565;19;20010;-54
2022/04/28 12:15:21;;;;;;;13.27;7.25;;;;;;;17.27;39.66;102959.69;7405934;19;20026;-58
2022/04/28 12:20:39;;;;;;;11.05;6.47;;;;;;;16.89;39.91;102958.47;7403472;19;20099;-56
2022/04/28 12:23:29;;;;;;;13.18;6.75;;;;;;;16.84;40.53;102963.06;7400880;19;20029;-58
2022/04/28 12:26:00;;;;;;;10.85;6.68;;;;;;;16.60;40.03;102958.56;7401679;19;20021;-55
2022/04/28 12:28:33;;;;;;;12.13;6.32;;;;;;;16.63;39.39;102957.59;7399824;19;20364;-59
2022/04/28 12:31:04;;;;;;;10.57;6.35;;;;;;;16.92;38.27;102963.66;7400115;19;20018;-59
2022/04/28 12:33:37;;;;;;;12.60;5.97;;;;;;;16.63;38.47;102968.19;7397431;19;20045;-58
2022/04/28 12:36:06;;;;;;;;;;;;;;;16.70;38.95;102960.91;7400902;19;20021;-57